KLWB/LWB METAR and TAF weather

Enter ICAO airport designator
Station Type Date Time Source
KLWB METAR 2019/10/22 16:35 UTC NOAA

KLWB 221635Z AUTO 00000KT 3SM +RA SCT008 BKN013 OVC031 13/12 A2991 RMK AO2 T01260121


Station Type Date Time Source
KLWB Decoded METAR 2019/10/22 16:35 UTC NOAA

Lewisburg / Greenbrier, WV, United States (KLWB) 37-52N 080-24W
Oct 22, 2019 - 12:35 PM EDT / 2019.10.22 1635 UTC
Wind: Calm:0
Visibility: 3 mile(s):0
Sky conditions: overcast
Weather: heavy rain
Temperature: 54.7 F (12.6 C)
Dew Point: 53.8 F (12.1 C)
Relative Humidity: 96%
Pressure (altimeter): 29.91 in. Hg (1012 hPa)
ob: KLWB 221635Z AUTO 00000KT 3SM +RA SCT008 BKN013 OVC031 13/12 A2991 RMK AO2 T01260121
cycle: 16

Station Type Date Time Source
KLWB TAF 2019/10/22 16:09 UTC NOAA

TAF
AMD KLWB 221606Z 2216/2312 00000KT 3SM RA SCT016 OVC025
TEMPO 2217/2218 1SM +SHRA BR BKN005 OVC012
FM221800 26007KT P6SM BKN060 BKN250
FM222200 27007KT P6SM SCT250
FM230300 27003KT P6SM SKC

Example: see airport list